Date,TemperatureHighF,TemperatureAvgF,TemperatureLowF,DewpointHighF,DewpointAvgF,DewpointLowF,HumidityHigh,HumidityAvg,HumidityLow,PressureMaxIn,PressureMinIn,WindSpeedMaxMPH,WindSpeedAvgMPH,GustSpeedMaxMPH,PrecipitationSumIn
2014-1-21,58,49,40,24,23,21,48,37,26,30.44,30.20,14,5,24,0.00
2014-1-22,67,67,67,28,27,27,23,22,22,29.98,29.98,7,4,8,0.00
2014-1-23,34,25,21,24,18,14,85,77,63,30.69,30.44,22,8,22,0.00
2014-1-24,41,29,21,18,12,5,80,50,36,30.69,30.31,14,3,15,0.00
2014-1-25,72,49,30,30,23,17,65,41,15,30.32,30.00,8,1,8,0.00
2014-1-26,80,61,45,38,29,21,49,32,12,30.00,29.68,22,4,22,0.00
2014-1-27,53,41,28,30,16,3,62,37,28,30.26,29.82,28,7,28,0.00
2014-1-28,37,28,22,18,8,3,75,42,28,30.44,30.24,19,5,19,0.00
2014-1-29,48,34,20,18,12,4,64,42,27,30.43,30.16,15,3,15,0.00
2014-1-30,62,46,29,43,34,13,83,64,43,30.17,29.85,26,8,26,0.00
2014-1-31,79,60,45,58,48,43,96,69,31,29.93,29.78,15,4,15,0.00
2014-2-1,75,63,46,60,54,38,86,73,52,29.92,29.74,19,5,19,0.00
2014-2-2,46,35,29,38,30,26,92,84,71,30.24,29.91,21,7,21,0.00
2014-2-3,40,34,29,35,31,26,95,88,81,30.25,29.91,18,3,18,0.01
2014-2-4,66,46,37,46,38,30,96,77,27,30.12,29.84,14,2,14,0.07
2014-2-5,42,31,24,37,23,15,85,71,56,30.48,30.12,16,6,22,0.00
2014-2-6,26,22,18,16,14,11,75,70,62,30.50,30.33,14,4,15,0.00
2014-2-7,31,26,22,29,23,15,93,87,73,30.34,30.18,8,1,8,0.00
2014-2-8,75,46,31,41,32,27,96,66,19,30.20,29.97,15,3,15,0.01
2014-2-9,81,58,40,47,38,32,87,51,20,30.08,29.89,15,4,15,0.00
2014-2-10,43,36,28,40,33,25,94,89,83,30.23,30.04,19,7,19,0.00
2014-2-11,29,28,26,27,26,24,94,91,89,30.29,30.18,16,5,18,0.00
2014-2-12,53,40,28,34,30,25,90,69,47,30.23,30.06,14,2,14,0.00
2014-2-13,74,51,32,39,34,27,84,55,25,30.08,29.87,15,3,15,0.00
2014-2-14,76,60,47,42,34,27,65,40,20,30.11,29.81,21,6,27,0.00
2014-2-15,77,50,39,42,29,23,63,45,22,30.15,29.97,12,2,20,0.00
2014-2-16,80,67,49,60,57,41,97,71,48,30.06,29.91,17,5,17,0.00
2014-2-17,76,61,51,60,42,25,97,61,17,30.16,29.93,18,2,24,0.01
2014-2-18,78,62,45,61,46,25,92,56,32,30.13,29.88,19,4,19,0.00
2014-2-19,76,65,56,63,60,54,97,84,61,29.94,29.73,19,4,19,0.00
2014-2-20,76,61,46,62,34,26,91,41,16,30.12,29.70,22,6,22,0.00
2014-2-21,70,53,34,29,25,22,65,37,17,30.20,29.98,19,4,19,0.00
2014-2-22,77,59,44,55,44,25,88,58,37,30.01,29.83,18,5,18,0.00
2014-2-23,80,64,52,58,50,39,97,66,31,30.09,29.88,15,3,15,0.00
2014-2-24,72,58,48,57,50,41,90,74,58,30.14,29.98,10,2,10,0.00
2014-2-25,62,54,45,61,53,43,97,96,90,30.09,29.97,15,3,15,0.00
2014-2-26,45,36,28,43,26,19,93,67,47,30.28,30.08,22,6,22,0.00
2014-2-27,62,43,27,38,28,19,73,56,35,30.17,29.85,14,4,14,0.00
2014-2-28,85,58,41,48,39,30,89,60,14,29.88,29.75,19,6,19,0.00
2014-4-19,77,66,54,57,54,50,92,66,45,30.18,30.02,9,3,19,0.00
2014-4-20,76,66,62,63,60,55,93,80,62,30.13,30.03,8,4,18,0.05
2014-4-21,88,70,63,66,63,60,94,81,45,30.07,29.92,6,3,15,0.04
2014-4-22,86,72,60,62,57,50,93,62,33,30.09,29.94,6,2,16,0.00
2014-4-23,89,74,59,64,60,54,88,63,39,29.97,29.73,10,5,20,0.00
2014-4-24,90,74,62,65,50,32,88,52,14,29.97,29.76,10,5,21,0.00
2014-4-25,88,73,56,60,49,39,65,44,29,30.05,29.86,11,4,19,0.00
2014-4-26,87,74,63,68,64,60,92,71,46,29.90,29.65,17,6,21,0.00
2014-4-27,94,80,70,69,51,29,91,49,11,29.66,29.48,20,5,20,0.00
2014-4-28,90,78,66,29,25,20,24,14,9,29.77,29.60,23,5,23,0.00
2014-4-29,78,69,58,40,29,18,49,24,12,30.03,29.67,23,6,23,0.00
2014-4-30,72,61,51,35,32,29,44,34,22,30.20,30.03,23,5,23,0.00
2014-5-1,78,62,45,33,27,23,57,30,15,30.21,30.03,15,2,15,0.00
2014-5-2,80,67,51,34,29,24,44,26,14,30.12,29.96,16,3,16,0.00
2014-5-3,93,78,57,39,29,20,41,19,7,30.09,29.97,16,3,18,0.00
2014-5-4,93,77,59,42,35,30,43,23,12,30.10,29.94,16,5,20,0.00
2014-5-5,96,78,60,60,53,43,76,45,20,30.00,29.78,19,6,19,0.00
2014-5-6,94,77,62,64,60,56,84,59,34,29.86,29.69,26,7,26,0.00
2014-5-7,90,78,69,68,65,61,84,66,40,29.84,29.73,25,8,25,0.00
2014-5-8,88,75,69,72,68,64,92,78,51,29.87,29.73,24,4,31,0.90
2014-5-9,87,76,69,72,64,55,96,69,40,29.97,29.81,14,1,14,0.00
2014-5-10,93,76,59,66,60,56,93,63,32,29.94,29.75,19,4,19,0.00
2014-5-11,91,78,67,68,65,62,87,66,42,29.84,29.67,24,8,25,0.00
2014-5-12,86,72,57,74,67,56,97,84,62,30.01,29.74,26,7,27,3.49
2014-5-13,62,56,50,56,48,43,96,73,51,30.31,29.94,26,7,26,0.08
2014-5-14,72,60,47,48,40,31,93,56,23,30.33,30.20,26,4,26,0.01
2014-5-15,81,67,48,44,37,30,70,36,16,30.31,30.11,18,3,18,0.00
2014-5-16,88,72,59,47,40,32,50,33,15,30.15,29.95,23,6,23,0.00
2014-5-17,87,71,60,59,50,38,68,50,32,30.01,29.90,16,5,17,0.00
2014-5-18,85,72,60,62,58,52,90,64,42,30.08,29.96,19,6,19,0.00
2014-5-19,86,70,62,64,59,57,86,70,40,30.05,29.94,18,7,22,0.00
2014-5-20,86,74,64,62,61,59,86,65,44,30.07,29.97,12,8,19,0.00
2014-5-21,87,77,67,64,63,61,84,64,43,30.08,29.97,12,7,19,0.00
2014-5-22,85,76,66,69,65,60,90,71,54,30.09,30.00,13,5,17,0.00
2014-5-23,82,74,69,68,65,63,87,74,59,30.08,29.97,17,5,17,0.00
2014-5-24,80,72,68,73,68,64,94,87,76,30.07,29.92,19,4,19,0.04
2014-5-25,76,68,61,70,65,60,97,91,81,30.07,29.95,17,4,21,1.72
2014-5-26,77,67,61,67,62,55,94,83,68,30.13,29.89,34,4,34,0.58
2014-5-27,82,69,60,72,65,58,96,87,68,30.06,29.85,10,2,19,1.41
2014-5-28,82,72,64,67,65,62,97,79,58,29.98,29.90,18,2,18,0.01
2014-5-29,86,74,63,68,63,60,92,71,49,29.97,29.86,14,1,14,0.00
2014-5-30,91,78,66,69,65,60,87,66,38,29.93,29.84,12,1,12,0.00
2014-5-31,90,78,66,71,67,64,92,71,46,29.97,29.88,11,1,11,0.00
2014-6-1,89,78,69,73,69,67,95,74,52,29.99,29.87,12,3,12,0.00
2014-6-2,88,77,68,71,68,66,92,74,52,30.00,29.89,17,4,17,0.00
2014-6-3,88,77,69,72,69,67,95,77,56,30.05,29.94,13,3,13,0.00
2014-6-4,89,79,69,73,70,67,93,74,53,29.94,29.82,16,5,16,0.00
2014-6-5,89,79,70,73,70,67,92,74,56,29.89,29.81,19,6,19,0.00
2014-6-6,89,80,70,72,69,67,94,71,54,29.98,29.84,18,5,18,0.00
2014-6-7,91,81,71,70,68,67,89,68,48,29.99,29.84,19,6,19,0.00
2014-6-8,87,77,68,76,70,65,94,81,59,30.04,29.81,17,4,17,0.20
2014-6-9,82,74,61,71,67,59,96,80,59,29.92,29.76,25,3,27,0.41
2014-6-10,86,74,60,64,60,55,84,62,40,29.97,29.86,16,3,16,0.00
2014-6-11,93,79,65,72,65,58,86,63,39,30.00,29.77,21,3,21,0.01
2014-6-12,89,76,66,77,69,64,95,80,65,29.96,29.76,18,4,24,0.63
2014-6-13,88,77,65,74,69,64,96,78,57,30.03,29.91,10,2,10,0.01
2014-6-14,86,76,66,73,69,64,95,80,60,30.02,29.83,25,4,25,0.07
2014-6-15,90,80,72,73,70,67,87,73,51,29.96,29.85,20,5,20,0.00
2014-6-16,91,81,71,72,70,65,92,70,43,30.04,29.92,21,6,21,0.00
2014-6-17,90,81,75,73,70,67,86,71,49,30.04,29.91,20,6,20,0.00
2014-6-18,89,79,74,75,71,67,95,76,55,30.02,29.91,18,5,18,0.10
2014-6-19,86,80,73,73,70,65,89,71,53,30.07,29.98,18,4,18,0.00
2014-6-20,88,78,71,72,69,67,91,73,54,30.13,30.01,14,3,14,0.00
2014-6-21,88,79,71,73,69,64,92,74,49,30.08,29.93,13,3,13,0.00
2014-6-22,88,79,74,74,70,67,91,76,58,29.96,29.85,15,4,15,0.12
2014-6-23,90,78,70,72,70,64,93,78,55,30.04,29.86,16,2,16,0.00
2014-6-24,93,79,70,73,70,64,94,75,44,30.10,29.97,15,3,15,0.49
2014-6-25,91,76,70,75,71,66,96,86,54,30.06,29.95,13,2,16,0.05
2014-6-26,89,78,67,73,70,66,96,78,53,30.04,29.86,16,4,16,0.00
2014-6-27,92,80,73,73,70,68,87,73,51,29.92,29.79,22,7,22,0.00
2014-6-28,92,82,76,74,72,70,84,72,52,29.97,29.86,23,7,23,0.00
2014-6-29,94,84,76,73,71,68,86,68,44,30.04,29.94,21,8,21,0.00
2014-6-30,96,83,71,73,68,60,90,63,31,30.02,29.87,19,8,25,0.00
2014-7-1,97,84,71,72,66,60,92,60,30,30.03,29.90,21,6,21,0.00
2014-7-2,97,85,69,71,65,54,92,54,27,30.10,30.01,19,3,29,0.00
2014-7-3,95,81,69,71,67,61,89,65,34,30.19,30.08,21,2,21,0.00
2014-7-4,95,80,68,70,64,57,92,63,31,30.23,30.13,16,3,16,0.00
2014-7-5,96,81,67,70,66,63,92,65,37,30.23,30.08,18,3,18,0.00
2014-7-6,96,82,68,71,66,62,95,63,35,30.11,29.96,17,3,17,0.00
2014-7-7,98,83,72,68,63,53,82,56,24,30.05,29.99,17,4,17,0.00